»·PEaware :: WAT465 KSJC-KPSP

WAT465 :: KSJC-KPSP

FLIGHT INFORMATION

Flight Status: Arrived
Operator:
Walker Air Transport
More flights by this operator :: More flights under this callsign
Pilot: Anonymous 27031 (27031)
Aircraft: BOEING 737-800
(B738)
More flights by this aircraft type
Origin: KSJC Mineta San Jose Intl
United States
Destination: KPSP Palm Springs Intl
United States
More flights between these airports :: More routes between these airports
Route: TECKY3 LOSHN CLASN SIZLR3
File this flight plan on PilotEdge
Remarks:
Altitude:
(Current/Filed)
35,000ft
Speed:
(Current/Filed)
432kts
Departed: 03-Jan-21 04:11 PM
Arrived: 03-Jan-21 05:56 PM
Distance/Time
Traveled:
339nm/1:44
Distance/Time
To Go:
Arrived

Flight Plot

Page will automatically refresh every two minutes.

Flight plan parsing failed; only flown route is shown


Map Options




Map Legend


Flown Route
Filed Route
Departure Airport
Arrival Airport
Navaid (VOR, NDB)
Fix

Horizontal Profiles

Position Reports

Time Latitude Longitude Heading Altitude Ground
Speed
03-Jan-21 15:37 37.373854 -121.936033 318 45ft 0kts
03-Jan-21 15:38 37.373854 -121.936033 318 45ft 0kts
03-Jan-21 15:38 37.373854 -121.936033 318 45ft 0kts
03-Jan-21 15:39 37.373854 -121.936033 318 45ft 0kts
03-Jan-21 15:40 37.373854 -121.936033 318 45ft 0kts
03-Jan-21 15:42 37.373854 -121.936033 318 45ft 0kts
03-Jan-21 15:42 37.373854 -121.936033 318 45ft 0kts
03-Jan-21 15:43 37.373854 -121.936033 318 45ft 0kts
03-Jan-21 15:44 37.373854 -121.936033 318 45ft 0kts
03-Jan-21 15:45 37.373517 -121.935666 313 45ft 2kts
03-Jan-21 15:46 37.373556 -121.935219 228 45ft 0kts
03-Jan-21 15:47 37.373556 -121.935219 228 45ft 0kts
03-Jan-21 15:48 37.373556 -121.935219 228 45ft 0kts
03-Jan-21 15:49 37.373556 -121.935219 228 45ft 0kts
03-Jan-21 15:50 37.373556 -121.935219 228 45ft 0kts
03-Jan-21 15:51 37.373556 -121.935219 228 45ft 0kts
03-Jan-21 15:52 37.373556 -121.935219 228 45ft 0kts
03-Jan-21 15:53 37.373556 -121.935219 228 45ft 0kts
03-Jan-21 15:54 37.373556 -121.935219 228 45ft 0kts
03-Jan-21 15:55 37.373556 -121.935219 228 45ft 0kts
03-Jan-21 15:56 37.373556 -121.935219 228 45ft 0kts
03-Jan-21 15:57 37.372481 -121.934808 137 45ft 11kts
03-Jan-21 15:58 37.368816 -121.930751 138 49ft 20kts
03-Jan-21 15:59 37.365230 -121.926801 138 52ft 14kts
03-Jan-21 16:00 37.362910 -121.924275 139 55ft 10kts
03-Jan-21 16:01 37.360521 -121.921649 138 58ft 13kts
03-Jan-21 16:02 37.357503 -121.918333 139 62ft 16kts
03-Jan-21 16:03 37.353963 -121.914461 141 65ft 15kts
03-Jan-21 16:04 37.353172 -121.914403 219 65ft 0kts
03-Jan-21 16:05 37.353172 -121.914403 219 65ft 0kts
03-Jan-21 16:06 37.353172 -121.914403 219 65ft 0kts
03-Jan-21 16:07 37.353172 -121.914403 219 65ft 0kts
03-Jan-21 16:08 37.353172 -121.914403 219 65ft 0kts
03-Jan-21 16:09 37.352654 -121.915110 239 65ft 8kts
03-Jan-21 16:10 37.357249 -121.920814 318 62ft 112kts
03-Jan-21 16:11 37.395388 -121.961447 316 2234ft 207kts
03-Jan-21 16:12 37.447758 -121.948369 74 4968ft 283kts
03-Jan-21 16:13 37.404265 -121.878613 142 4966ft 277kts
03-Jan-21 16:14 37.347715 -121.811203 136 4994ft 277kts
03-Jan-21 16:24 37.373846 -121.936024 318 45ft 0kts
03-Jan-21 16:25 37.373846 -121.936024 318 45ft 0kts
03-Jan-21 16:26 37.373846 -121.936024 318 45ft 0kts
03-Jan-21 16:27 37.373846 -121.936024 318 45ft 0kts
03-Jan-21 16:28 37.373846 -121.936024 318 45ft 0kts
03-Jan-21 16:29 37.373846 -121.936024 318 45ft 0kts
03-Jan-21 16:30 37.373846 -121.936024 318 45ft 0kts
03-Jan-21 16:31 37.373846 -121.936024 318 45ft 0kts
03-Jan-21 16:32 37.373846 -121.936024 318 45ft 0kts
03-Jan-21 16:33 37.373846 -121.936024 318 45ft 0kts
03-Jan-21 16:34 37.373846 -121.936024 318 45ft 0kts
03-Jan-21 16:35 37.373846 -121.936024 318 45ft 0kts
03-Jan-21 16:36 37.373845 -121.936024 318 45ft 0kts
03-Jan-21 16:37 37.373472 -121.935575 285 45ft 2kts
03-Jan-21 16:38 37.373556 -121.935219 228 45ft 0kts
03-Jan-21 16:39 37.373556 -121.935219 228 45ft 0kts
03-Jan-21 16:40 37.373556 -121.935219 228 45ft 0kts
03-Jan-21 16:41 37.373366 -121.935434 209 45ft 2kts
03-Jan-21 16:42 37.372098 -121.934365 136 45ft 9kts
03-Jan-21 16:43 37.369003 -121.930965 138 48ft 19kts
03-Jan-21 16:44 37.364151 -121.925635 138 55ft 25kts
03-Jan-21 16:45 37.358385 -121.919304 138 62ft 27kts
03-Jan-21 16:46 37.353388 -121.914250 197 65ft 12kts
03-Jan-21 16:47 37.353200 -121.914386 219 65ft 0kts
03-Jan-21 16:48 37.353200 -121.914386 219 65ft 0kts
03-Jan-21 16:49 37.353200 -121.914386 219 65ft 0kts
03-Jan-21 16:50 37.353200 -121.914386 219 65ft 0kts
03-Jan-21 16:51 37.354176 -121.917386 318 65ft 29kts
03-Jan-21 16:52 37.384279 -121.948830 320 1653ft 186kts
03-Jan-21 16:53 37.429420 -121.968766 45 4379ft 222kts
03-Jan-21 16:54 37.405816 -121.902925 134 5001ft 248kts
03-Jan-21 16:55 37.361390 -121.835113 132 5006ft 246kts
03-Jan-21 16:56 37.313715 -121.770548 139 5005ft 245kts
03-Jan-21 16:57 37.258629 -121.708497 138 4998ft 267kts
03-Jan-21 16:59 37.200542 -121.642666 138 6877ft 288kts
03-Jan-21 17:00 37.139214 -121.573322 140 10580ft 309kts
03-Jan-21 17:01 37.067324 -121.492064 138 13457ft 359kts
03-Jan-21 17:02 36.996372 -121.395930 134 16787ft 382kts
03-Jan-21 17:03 36.921713 -121.293699 135 19830ft 403kts
03-Jan-21 17:04 36.844027 -121.187689 135 22529ft 422kts
03-Jan-21 17:05 36.761850 -121.075911 135 24923ft 442kts
03-Jan-21 17:06 36.676621 -120.960345 135 27099ft 461kts
03-Jan-21 17:07 36.582568 -120.847770 140 29153ft 475kts
03-Jan-21 17:08 36.483938 -120.732692 140 31118ft 489kts
03-Jan-21 17:09 36.382761 -120.614859 141 33541ft 485kts
03-Jan-21 17:10 36.282297 -120.498314 141 35252ft 486kts
03-Jan-21 17:10 36.199687 -120.402755 141 35240ft 475kts
03-Jan-21 17:11 36.101424 -120.289422 142 35245ft 467kts
03-Jan-21 17:13 35.985136 -120.155885 141 35253ft 478kts
03-Jan-21 17:14 35.887835 -120.044518 140 35251ft 479kts
03-Jan-21 17:15 35.812863 -119.906731 117 35259ft 489kts
03-Jan-21 17:15 35.764823 -119.779350 117 35254ft 489kts
03-Jan-21 17:17 35.696306 -119.598044 119 35246ft 489kts
03-Jan-21 17:18 35.619496 -119.458173 132 35248ft 483kts
03-Jan-21 17:18 35.545436 -119.350880 135 35247ft 482kts
03-Jan-21 17:19 35.455793 -119.227608 136 35251ft 481kts
03-Jan-21 17:20 35.363441 -119.102805 136 35255ft 481kts
03-Jan-21 17:21 35.270372 -118.978692 136 35256ft 482kts
03-Jan-21 17:22 35.176700 -118.854951 136 35257ft 474kts
03-Jan-21 17:23 35.084326 -118.733061 136 35271ft 477kts
03-Jan-21 17:24 34.991827 -118.611349 135 33420ft 484kts
03-Jan-21 17:25 34.899770 -118.490567 134 31076ft 468kts
03-Jan-21 17:26 34.814051 -118.378517 133 28988ft 427kts
03-Jan-21 17:27 34.739756 -118.271921 129 27161ft 393kts
03-Jan-21 17:28 34.668544 -118.162106 128 25394ft 415kts
03-Jan-21 17:29 34.596932 -118.050355 124 23650ft 413kts
03-Jan-21 17:30 34.541593 -117.931224 115 23227ft 389kts
03-Jan-21 17:31 34.492625 -117.812477 115 23224ft 389kts
03-Jan-21 17:32 34.443866 -117.693920 115 22712ft 385kts
03-Jan-21 17:33 34.395586 -117.576061 115 21063ft 387kts
03-Jan-21 17:34 34.347471 -117.458573 114 19374ft 372kts
03-Jan-21 17:35 34.302589 -117.349375 115 17795ft 351kts
03-Jan-21 17:36 34.255665 -117.247512 118 16263ft 333kts
03-Jan-21 17:37 34.207905 -117.145843 118 15999ft 347kts
03-Jan-21 17:38 34.159790 -117.043398 118 16000ft 342kts
03-Jan-21 17:39 34.112654 -116.943279 117 15999ft 335kts
03-Jan-21 17:40 34.067371 -116.846540 117 15119ft 320kts
03-Jan-21 17:41 34.027004 -116.750021 106 13787ft 319kts
03-Jan-21 17:42 33.999748 -116.647571 105 12454ft 319kts
03-Jan-21 17:43 33.967145 -116.546394 123 10922ft 319kts
03-Jan-21 17:44 33.908776 -116.473881 134 9919ft 271kts
03-Jan-21 17:45 33.854794 -116.412672 135 8994ft 257kts
03-Jan-21 17:46 33.805072 -116.354918 133 8998ft 245kts
03-Jan-21 17:47 33.756395 -116.297058 133 8985ft 244kts
03-Jan-21 17:48 33.707311 -116.238701 133 8986ft 243kts
03-Jan-21 17:49 33.647550 -116.216748 219 8289ft 253kts
03-Jan-21 17:50 33.651860 -116.289819 310 6710ft 248kts
03-Jan-21 17:51 33.698052 -116.356908 311 4859ft 263kts
03-Jan-21 17:52 33.741895 -116.419877 311 4006ft 210kts
03-Jan-21 17:53 33.781265 -116.466414 324 2445ft 173kts
03-Jan-21 17:54 33.818777 -116.498088 325 480ft 143kts
03-Jan-21 17:55 33.834851 -116.510894 52 450ft 0kts
03-Jan-21 17:56 33.834851 -116.510894 52 450ft 0kts
03-Jan-21 17:57 33.835282 -116.509291 56 449ft 6kts
03-Jan-21 17:58 33.832733 -116.506479 144 440ft 17kts
03-Jan-21 17:59 33.828867 -116.503053 143 430ft 17kts
03-Jan-21 18:00 33.826908 -116.500582 135 421ft 0kts
03-Jan-21 18:01 33.826531 -116.500263 143 419ft 0kts
03-Jan-21 18:02 33.826531 -116.500263 143 419ft 0kts
03-Jan-21 18:03 33.826531 -116.500263 143 419ft 0kts
03-Jan-21 18:04 33.826531 -116.500263 143 419ft 0kts

Navigation Log

Ident Type
Flight plan parsing failed, navigation log unavailable